sensor_id;sensor_type;location;lat;lon;timestamp;temperature;humidity
20233;DHT22;37438;55.674;13.074;2023-03-21T00:01:13;7.20;99.90
20233;DHT22;37438;55.674;13.074;2023-03-21T00:04:19;7.20;99.90
20233;DHT22;37438;55.674;13.074;2023-03-21T00:07:23;7.40;99.90
20233;DHT22;37438;55.674;13.074;2023-03-21T00:10:27;7.20;99.90
20233;DHT22;37438;55.674;13.074;2023-03-21T00:13:47;7.20;99.90
20233;DHT22;37438;55.674;13.074;2023-03-21T00:16:51;7.20;99.90
20233;DHT22;37438;55.674;13.074;2023-03-21T00:20:02;7.50;99.90
20233;DHT22;37438;55.674;13.074;2023-03-21T00:23:10;7.60;99.90
20233;DHT22;37438;55.674;13.074;2023-03-21T00:26:15;7.50;99.90
20233;DHT22;37438;55.674;13.074;2023-03-21T00:29:20;7.40;99.90
20233;DHT22;37438;55.674;13.074;2023-03-21T00:32:25;7.40;99.90
20233;DHT22;37438;55.674;13.074;2023-03-21T00:35:29;7.60;99.90
20233;DHT22;37438;55.674;13.074;2023-03-21T00:38:54;7.30;99.90
20233;DHT22;37438;55.674;13.074;2023-03-21T00:41:58;7.60;99.90
20233;DHT22;37438;55.674;13.074;2023-03-21T00:45:04;7.30;99.90
20233;DHT22;37438;55.674;13.074;2023-03-21T00:48:09;7.60;99.90
20233;DHT22;37438;55.674;13.074;2023-03-21T00:51:20;7.70;99.90
20233;DHT22;37438;55.674;13.074;2023-03-21T00:54:29;7.70;99.90
20233;DHT22;37438;55.674;13.074;2023-03-21T00:57:34;7.40;99.90
20233;DHT22;37438;55.674;13.074;2023-03-21T01:00:43;7.40;99.90
20233;DHT22;37438;55.674;13.074;2023-03-21T01:03:50;7.50;99.90
20233;DHT22;37438;55.674;13.074;2023-03-21T01:07:08;7.70;99.90
20233;DHT22;37438;55.674;13.074;2023-03-21T01:10:14;7.40;99.90
20233;DHT22;37438;55.674;13.074;2023-03-21T01:13:21;8.00;99.90
20233;DHT22;37438;55.674;13.074;2023-03-21T01:16:26;8.00;99.90
20233;DHT22;37438;55.674;13.074;2023-03-21T01:19:31;7.90;99.90
20233;DHT22;37438;55.674;13.074;2023-03-21T01:22:54;8.00;99.90
20233;DHT22;37438;55.674;13.074;2023-03-21T01:25:59;7.80;99.90
20233;DHT22;37438;55.674;13.074;2023-03-21T01:29:04;7.90;99.90
20233;DHT22;37438;55.674;13.074;2023-03-21T01:32:09;7.70;99.90
20233;DHT22;37438;55.674;13.074;2023-03-21T01:35:13;7.60;99.90
20233;DHT22;37438;55.674;13.074;2023-03-21T01:38:18;7.60;99.90
20233;DHT22;37438;55.674;13.074;2023-03-21T01:41:37;7.50;99.90
20233;DHT22;37438;55.674;13.074;2023-03-21T01:45:03;7.50;99.90
20233;DHT22;37438;55.674;13.074;2023-03-21T01:48:20;7.30;99.90
20233;DHT22;37438;55.674;13.074;2023-03-21T01:51:31;7.20;99.90
20233;DHT22;37438;55.674;13.074;2023-03-21T01:54:38;7.10;99.90
20233;DHT22;37438;55.674;13.074;2023-03-21T01:57:48;7.10;99.90
20233;DHT22;37438;55.674;13.074;2023-03-21T02:01:15;7.40;99.90
20233;DHT22;37438;55.674;13.074;2023-03-21T02:04:25;7.40;99.90
20233;DHT22;37438;55.674;13.074;2023-03-21T02:07:48;7.60;99.90
20233;DHT22;37438;55.674;13.074;2023-03-21T02:10:54;7.50;99.90
20233;DHT22;37438;55.674;13.074;2023-03-21T02:14:14;7.20;99.90
20233;DHT22;37438;55.674;13.074;2023-03-21T02:18:02;7.40;99.90
20233;DHT22;37438;55.674;13.074;2023-03-21T02:24:59;7.30;99.90
20233;DHT22;37438;55.674;13.074;2023-03-21T02:31:44;7.40;99.90
20233;DHT22;37438;55.674;13.074;2023-03-21T02:35:18;7.10;99.90
20233;DHT22;37438;55.674;13.074;2023-03-21T02:42:07;7.50;99.90
20233;DHT22;37438;55.674;13.074;2023-03-21T02:45:18;7.10;99.90
20233;DHT22;37438;55.674;13.074;2023-03-21T02:48:34;7.10;99.90
20233;DHT22;37438;55.674;13.074;2023-03-21T02:51:58;6.90;99.90
20233;DHT22;37438;55.674;13.074;2023-03-21T02:55:25;6.90;99.90
20233;DHT22;37438;55.674;13.074;2023-03-21T02:58:39;6.90;99.90
20233;DHT22;37438;55.674;13.074;2023-03-21T03:01:44;7.00;99.90
20233;DHT22;37438;55.674;13.074;2023-03-21T03:04:49;6.70;99.90
20233;DHT22;37438;55.674;13.074;2023-03-21T03:11:58;7.00;99.90
20233;DHT22;37438;55.674;13.074;2023-03-21T03:16:14;6.80;99.90
20233;DHT22;37438;55.674;13.074;2023-03-21T03:19:13;6.90;99.90
20233;DHT22;37438;55.674;13.074;2023-03-21T03:23:04;7.00;99.90
20233;DHT22;37438;55.674;13.074;2023-03-21T03:26:12;6.80;99.90
20233;DHT22;37438;55.674;13.074;2023-03-21T03:29:19;7.00;99.90
20233;DHT22;37438;55.674;13.074;2023-03-21T03:32:47;6.90;99.90
20233;DHT22;37438;55.674;13.074;2023-03-21T03:35:55;6.60;99.90
20233;DHT22;37438;55.674;13.074;2023-03-21T03:39:12;6.40;99.90
20233;DHT22;37438;55.674;13.074;2023-03-21T03:42:29;6.10;99.90
20233;DHT22;37438;55.674;13.074;2023-03-21T03:45:48;6.30;99.90
20233;DHT22;37438;55.674;13.074;2023-03-21T03:49:00;6.00;99.90
20233;DHT22;37438;55.674;13.074;2023-03-21T03:52:30;6.30;99.90
20233;DHT22;37438;55.674;13.074;2023-03-21T03:55:42;6.30;99.90
20233;DHT22;37438;55.674;13.074;2023-03-21T03:58:50;6.40;99.90
20233;DHT22;37438;55.674;13.074;2023-03-21T04:01:59;6.40;99.90
20233;DHT22;37438;55.674;13.074;2023-03-21T04:05:04;6.00;99.90
20233;DHT22;37438;55.674;13.074;2023-03-21T04:08:09;6.10;99.90
20233;DHT22;37438;55.674;13.074;2023-03-21T04:11:18;5.90;99.90
20233;DHT22;37438;55.674;13.074;2023-03-21T04:14:27;6.10;99.90
20233;DHT22;37438;55.674;13.074;2023-03-21T04:17:46;5.60;99.90
20233;DHT22;37438;55.674;13.074;2023-03-21T04:20:51;5.30;99.90
20233;DHT22;37438;55.674;13.074;2023-03-21T04:23:56;5.10;99.90
20233;DHT22;37438;55.674;13.074;2023-03-21T04:27:00;5.10;99.90
20233;DHT22;37438;55.674;13.074;2023-03-21T04:30:37;5.10;99.90
20233;DHT22;37438;55.674;13.074;2023-03-21T04:33:49;5.00;99.90
20233;DHT22;37438;55.674;13.074;2023-03-21T04:36:54;4.70;99.90
20233;DHT22;37438;55.674;13.074;2023-03-21T04:39:58;4.70;99.90
20233;DHT22;37438;55.674;13.074;2023-03-21T04:43:03;4.70;99.90
20233;DHT22;37438;55.674;13.074;2023-03-21T04:46:08;4.60;99.90
20233;DHT22;37438;55.674;13.074;2023-03-21T04:49:12;4.60;99.90
20233;DHT22;37438;55.674;13.074;2023-03-21T04:52:19;4.50;99.90
20233;DHT22;37438;55.674;13.074;2023-03-21T04:55:23;4.40;99.90
20233;DHT22;37438;55.674;13.074;2023-03-21T04:58:31;4.40;99.90
20233;DHT22;37438;55.674;13.074;2023-03-21T05:01:35;4.40;99.90
20233;DHT22;37438;55.674;13.074;2023-03-21T05:04:40;4.60;99.90
20233;DHT22;37438;55.674;13.074;2023-03-21T05:07:45;4.30;99.90
20233;DHT22;37438;55.674;13.074;2023-03-21T05:10:50;4.50;99.90
20233;DHT22;37438;55.674;13.074;2023-03-21T05:13:55;4.40;99.90
20233;DHT22;37438;55.674;13.074;2023-03-21T05:16:59;4.20;99.90
20233;DHT22;37438;55.674;13.074;2023-03-21T05:20:10;4.50;99.90
20233;DHT22;37438;55.674;13.074;2023-03-21T05:23:14;4.30;99.90
20233;DHT22;37438;55.674;13.074;2023-03-21T05:26:21;4.30;99.90
20233;DHT22;37438;55.674;13.074;2023-03-21T05:29:35;4.30;99.90
20233;DHT22;37438;55.674;13.074;2023-03-21T05:32:42;4.20;99.90
20233;DHT22;37438;55.674;13.074;2023-03-21T05:35:51;4.40;99.90
20233;DHT22;37438;55.674;13.074;2023-03-21T05:38:56;4.20;99.90
20233;DHT22;37438;55.674;13.074;2023-03-21T05:42:00;4.20;99.90
20233;DHT22;37438;55.674;13.074;2023-03-21T05:45:06;4.30;99.90
20233;DHT22;37438;55.674;13.074;2023-03-21T05:48:11;4.60;99.90
20233;DHT22;37438;55.674;13.074;2023-03-21T05:51:33;4.60;99.90
20233;DHT22;37438;55.674;13.074;2023-03-21T05:54:38;4.90;99.90
20233;DHT22;37438;55.674;13.074;2023-03-21T05:57:43;4.80;99.90
20233;DHT22;37438;55.674;13.074;2023-03-21T06:00:54;4.60;99.90
20233;DHT22;37438;55.674;13.074;2023-03-21T06:04:06;4.90;99.90
20233;DHT22;37438;55.674;13.074;2023-03-21T06:07:11;4.90;99.90
20233;DHT22;37438;55.674;13.074;2023-03-21T06:10:17;5.20;99.90
20233;DHT22;37438;55.674;13.074;2023-03-21T06:13:24;5.30;99.90
20233;DHT22;37438;55.674;13.074;2023-03-21T06:16:29;5.00;99.90
20233;DHT22;37438;55.674;13.074;2023-03-21T06:19:34;5.30;99.90
20233;DHT22;37438;55.674;13.074;2023-03-21T06:22:46;5.20;99.90
20233;DHT22;37438;55.674;13.074;2023-03-21T06:25:50;5.50;99.90
20233;DHT22;37438;55.674;13.074;2023-03-21T06:28:55;5.20;99.90
20233;DHT22;37438;55.674;13.074;2023-03-21T06:32:00;5.40;99.90
20233;DHT22;37438;55.674;13.074;2023-03-21T06:35:04;5.40;99.90
20233;DHT22;37438;55.674;13.074;2023-03-21T06:38:10;5.60;99.90
20233;DHT22;37438;55.674;13.074;2023-03-21T06:41:15;6.00;99.90
20233;DHT22;37438;55.674;13.074;2023-03-21T06:44:28;6.10;99.90
20233;DHT22;37438;55.674;13.074;2023-03-21T06:47:39;5.90;99.90
20233;DHT22;37438;55.674;13.074;2023-03-21T06:50:53;6.10;99.90
20233;DHT22;37438;55.674;13.074;2023-03-21T06:53:59;5.80;99.90
20233;DHT22;37438;55.674;13.074;2023-03-21T06:57:15;6.00;99.90
20233;DHT22;37438;55.674;13.074;2023-03-21T07:00:21;6.20;99.90
20233;DHT22;37438;55.674;13.074;2023-03-21T07:03:28;6.10;99.90
20233;DHT22;37438;55.674;13.074;2023-03-21T07:06:36;6.30;99.90
20233;DHT22;37438;55.674;13.074;2023-03-21T07:09:42;6.30;99.90
20233;DHT22;37438;55.674;13.074;2023-03-21T07:12:46;6.30;99.90
20233;DHT22;37438;55.674;13.074;2023-03-21T07:16:00;6.50;99.90
20233;DHT22;37438;55.674;13.074;2023-03-21T07:19:04;6.70;99.90
20233;DHT22;37438;55.674;13.074;2023-03-21T07:22:09;6.90;99.90
20233;DHT22;37438;55.674;13.074;2023-03-21T07:25:14;6.70;99.90
20233;DHT22;37438;55.674;13.074;2023-03-21T07:28:21;7.10;99.90
20233;DHT22;37438;55.674;13.074;2023-03-21T07:31:27;7.10;99.90
20233;DHT22;37438;55.674;13.074;2023-03-21T07:34:32;7.20;99.90
20233;DHT22;37438;55.674;13.074;2023-03-21T07:37:39;7.40;99.90
20233;DHT22;37438;55.674;13.074;2023-03-21T07:40:45;7.10;99.90
20233;DHT22;37438;55.674;13.074;2023-03-21T07:43:50;7.10;99.90
20233;DHT22;37438;55.674;13.074;2023-03-21T07:46:55;7.20;99.90
20233;DHT22;37438;55.674;13.074;2023-03-21T07:50:01;7.10;99.90
20233;DHT22;37438;55.674;13.074;2023-03-21T07:53:08;7.20;99.90
20233;DHT22;37438;55.674;13.074;2023-03-21T07:56:13;7.30;99.90
20233;DHT22;37438;55.674;13.074;2023-03-21T07:59:17;7.00;99.90
20233;DHT22;37438;55.674;13.074;2023-03-21T08:02:21;7.00;99.90
20233;DHT22;37438;55.674;13.074;2023-03-21T08:05:37;7.30;99.90
20233;DHT22;37438;55.674;13.074;2023-03-21T08:08:42;7.60;99.90
20233;DHT22;37438;55.674;13.074;2023-03-21T08:11:46;7.90;99.90
20233;DHT22;37438;55.674;13.074;2023-03-21T08:14:51;8.20;99.90
20233;DHT22;37438;55.674;13.074;2023-03-21T08:17:57;8.00;99.90
20233;DHT22;37438;55.674;13.074;2023-03-21T08:21:02;8.30;99.90
20233;DHT22;37438;55.674;13.074;2023-03-21T08:24:07;8.20;99.90
20233;DHT22;37438;55.674;13.074;2023-03-21T08:27:11;9.00;99.90
20233;DHT22;37438;55.674;13.074;2023-03-21T08:30:21;8.40;99.90
20233;DHT22;37438;55.674;13.074;2023-03-21T08:33:25;8.50;99.90
20233;DHT22;37438;55.674;13.074;2023-03-21T08:36:30;8.20;99.90
20233;DHT22;37438;55.674;13.074;2023-03-21T08:39:35;8.20;99.90
20233;DHT22;37438;55.674;13.074;2023-03-21T08:42:41;8.40;99.90
20233;DHT22;37438;55.674;13.074;2023-03-21T08:45:46;8.40;99.90
20233;DHT22;37438;55.674;13.074;2023-03-21T08:48:50;9.00;99.90
20233;DHT22;37438;55.674;13.074;2023-03-21T08:51:55;9.30;99.90
20233;DHT22;37438;55.674;13.074;2023-03-21T08:55:00;9.10;99.90
20233;DHT22;37438;55.674;13.074;2023-03-21T08:58:05;9.80;99.90
20233;DHT22;37438;55.674;13.074;2023-03-21T09:01:10;9.80;99.90
20233;DHT22;37438;55.674;13.074;2023-03-21T09:04:18;9.50;99.90
20233;DHT22;37438;55.674;13.074;2023-03-21T09:07:24;9.80;99.90
20233;DHT22;37438;55.674;13.074;2023-03-21T09:10:29;9.80;99.90
20233;DHT22;37438;55.674;13.074;2023-03-21T09:13:34;10.00;99.90
20233;DHT22;37438;55.674;13.074;2023-03-21T09:16:38;9.80;99.90
20233;DHT22;37438;55.674;13.074;2023-03-21T09:19:42;9.50;99.90
20233;DHT22;37438;55.674;13.074;2023-03-21T09:22:48;9.20;99.90
20233;DHT22;37438;55.674;13.074;2023-03-21T09:25:53;9.20;99.90
20233;DHT22;37438;55.674;13.074;2023-03-21T09:28:58;8.80;99.90
20233;DHT22;37438;55.674;13.074;2023-03-21T09:32:04;8.90;99.90
20233;DHT22;37438;55.674;13.074;2023-03-21T09:35:10;9.00;99.90
20233;DHT22;37438;55.674;13.074;2023-03-21T09:38:16;8.90;99.90
20233;DHT22;37438;55.674;13.074;2023-03-21T09:48:16;8.40;99.90
20233;DHT22;37438;55.674;13.074;2023-03-21T09:51:28;8.50;99.90
20233;DHT22;37438;55.674;13.074;2023-03-21T09:54:37;8.30;99.90
20233;DHT22;37438;55.674;13.074;2023-03-21T09:57:46;8.40;99.90
20233;DHT22;37438;55.674;13.074;2023-03-21T10:00:57;8.70;99.90
20233;DHT22;37438;55.674;13.074;2023-03-21T10:04:06;8.40;99.90
20233;DHT22;37438;55.674;13.074;2023-03-21T10:07:13;8.40;99.90
20233;DHT22;37438;55.674;13.074;2023-03-21T10:10:27;8.50;99.90
20233;DHT22;37438;55.674;13.074;2023-03-21T10:13:34;8.40;99.90
20233;DHT22;37438;55.674;13.074;2023-03-21T10:16:45;8.40;99.90
20233;DHT22;37438;55.674;13.074;2023-03-21T10:23:21;8.10;99.90
20233;DHT22;37438;55.674;13.074;2023-03-21T10:26:27;8.20;99.90
20233;DHT22;37438;55.674;13.074;2023-03-21T10:29:42;8.10;99.90
20233;DHT22;37438;55.674;13.074;2023-03-21T10:32:47;8.20;99.90
20233;DHT22;37438;55.674;13.074;2023-03-21T10:35:54;8.00;99.90
20233;DHT22;37438;55.674;13.074;2023-03-21T10:42:05;8.30;99.90
20233;DHT22;37438;55.674;13.074;2023-03-21T10:45:17;8.10;99.90
20233;DHT22;37438;55.674;13.074;2023-03-21T10:48:23;8.10;99.90
20233;DHT22;37438;55.674;13.074;2023-03-21T10:51:35;8.10;99.90
20233;DHT22;37438;55.674;13.074;2023-03-21T10:54:40;8.10;99.90
20233;DHT22;37438;55.674;13.074;2023-03-21T10:57:46;8.10;99.90
20233;DHT22;37438;55.674;13.074;2023-03-21T11:00:55;8.30;99.90
20233;DHT22;37438;55.674;13.074;2023-03-21T11:04:19;8.10;99.90
20233;DHT22;37438;55.674;13.074;2023-03-21T11:07:27;8.30;99.90
20233;DHT22;37438;55.674;13.074;2023-03-21T11:10:54;8.40;99.90
20233;DHT22;37438;55.674;13.074;2023-03-21T11:14:07;8.50;99.90
20233;DHT22;37438;55.674;13.074;2023-03-21T11:20:20;8.30;99.90
20233;DHT22;37438;55.674;13.074;2023-03-21T11:23:29;8.70;99.90
20233;DHT22;37438;55.674;13.074;2023-03-21T11:26:36;8.50;99.90
20233;DHT22;37438;55.674;13.074;2023-03-21T11:29:46;8.50;99.90
20233;DHT22;37438;55.674;13.074;2023-03-21T11:32:56;8.60;99.90
20233;DHT22;37438;55.674;13.074;2023-03-21T11:36:05;8.60;99.90
20233;DHT22;37438;55.674;13.074;2023-03-21T11:42:31;8.60;99.90
20233;DHT22;37438;55.674;13.074;2023-03-21T11:45:36;8.70;99.90
20233;DHT22;37438;55.674;13.074;2023-03-21T11:48:44;8.90;99.90
20233;DHT22;37438;55.674;13.074;2023-03-21T11:52:13;8.80;99.90
20233;DHT22;37438;55.674;13.074;2023-03-21T11:56:33;8.80;99.90
20233;DHT22;37438;55.674;13.074;2023-03-21T11:59:13;9.10;99.90
20233;DHT22;37438;55.674;13.074;2023-03-21T12:06:01;9.20;99.90
20233;DHT22;37438;55.674;13.074;2023-03-21T12:26:26;9.60;99.90
20233;DHT22;37438;55.674;13.074;2023-03-21T12:29:52;9.50;99.90
20233;DHT22;37438;55.674;13.074;2023-03-21T12:39:45;9.80;99.90
20233;DHT22;37438;55.674;13.074;2023-03-21T13:03:25;10.30;99.90
20233;DHT22;37438;55.674;13.074;2023-03-21T13:06:45;10.10;99.90
20233;DHT22;37438;55.674;13.074;2023-03-21T13:09:50;10.10;99.90
20233;DHT22;37438;55.674;13.074;2023-03-21T13:16:55;10.40;99.90
20233;DHT22;37438;55.674;13.074;2023-03-21T13:20:24;10.20;99.90
20233;DHT22;37438;55.674;13.074;2023-03-21T13:23:37;10.40;99.90
20233;DHT22;37438;55.674;13.074;2023-03-21T13:26:46;10.30;99.90
20233;DHT22;37438;55.674;13.074;2023-03-21T13:33:11;10.50;99.90
20233;DHT22;37438;55.674;13.074;2023-03-21T13:36:25;10.50;99.90
20233;DHT22;37438;55.674;13.074;2023-03-21T13:39:31;10.50;99.90
20233;DHT22;37438;55.674;13.074;2023-03-21T13:42:43;10.80;99.90
20233;DHT22;37438;55.674;13.074;2023-03-21T13:45:52;10.80;99.90
20233;DHT22;37438;55.674;13.074;2023-03-21T13:49:01;11.10;99.90
20233;DHT22;37438;55.674;13.074;2023-03-21T13:55:19;11.00;99.90
20233;DHT22;37438;55.674;13.074;2023-03-21T13:58:50;11.10;99.90
20233;DHT22;37438;55.674;13.074;2023-03-21T14:02:02;11.30;99.90
20233;DHT22;37438;55.674;13.074;2023-03-21T14:05:17;11.30;99.90
20233;DHT22;37438;55.674;13.074;2023-03-21T14:08:26;11.50;99.90
20233;DHT22;37438;55.674;13.074;2023-03-21T14:11:42;11.50;99.90
20233;DHT22;37438;55.674;13.074;2023-03-21T14:15:04;11.30;99.90
20233;DHT22;37438;55.674;13.074;2023-03-21T14:18:22;11.40;99.90
20233;DHT22;37438;55.674;13.074;2023-03-21T14:21:47;11.40;99.90
20233;DHT22;37438;55.674;13.074;2023-03-21T14:25:00;11.60;99.90
20233;DHT22;37438;55.674;13.074;2023-03-21T14:28:11;11.40;99.90
20233;DHT22;37438;55.674;13.074;2023-03-21T14:31:18;11.50;99.90
20233;DHT22;37438;55.674;13.074;2023-03-21T14:34:24;11.50;99.90
20233;DHT22;37438;55.674;13.074;2023-03-21T14:37:38;11.30;99.90
20233;DHT22;37438;55.674;13.074;2023-03-21T14:40:51;11.40;99.90
20233;DHT22;37438;55.674;13.074;2023-03-21T14:44:22;11.50;99.90
20233;DHT22;37438;55.674;13.074;2023-03-21T14:47:31;11.20;99.90
20233;DHT22;37438;55.674;13.074;2023-03-21T14:51:05;11.20;99.90
20233;DHT22;37438;55.674;13.074;2023-03-21T14:54:16;11.20;99.90
20233;DHT22;37438;55.674;13.074;2023-03-21T14:57:24;11.50;99.90
20233;DHT22;37438;55.674;13.074;2023-03-21T15:00:31;11.20;99.90
20233;DHT22;37438;55.674;13.074;2023-03-21T15:03:36;11.20;99.90
20233;DHT22;37438;55.674;13.074;2023-03-21T15:06:49;11.30;99.90
20233;DHT22;37438;55.674;13.074;2023-03-21T15:09:57;11.30;99.90
20233;DHT22;37438;55.674;13.074;2023-03-21T15:16:16;11.20;99.90
20233;DHT22;37438;55.674;13.074;2023-03-21T15:19:22;11.20;99.90
20233;DHT22;37438;55.674;13.074;2023-03-21T15:22:35;11.40;99.90
20233;DHT22;37438;55.674;13.074;2023-03-21T15:25:41;11.10;99.90
20233;DHT22;37438;55.674;13.074;2023-03-21T15:28:49;11.30;99.90
20233;DHT22;37438;55.674;13.074;2023-03-21T15:31:53;11.30;99.90
20233;DHT22;37438;55.674;13.074;2023-03-21T15:35:07;11.00;99.90
20233;DHT22;37438;55.674;13.074;2023-03-21T15:38:49;11.30;99.90
20233;DHT22;37438;55.674;13.074;2023-03-21T15:42:25;11.40;99.90
20233;DHT22;37438;55.674;13.074;2023-03-21T15:45:30;11.20;99.90
20233;DHT22;37438;55.674;13.074;2023-03-21T15:48:35;11.00;99.90
20233;DHT22;37438;55.674;13.074;2023-03-21T15:51:42;11.10;99.90
20233;DHT22;37438;55.674;13.074;2023-03-21T15:54:49;11.30;99.90
20233;DHT22;37438;55.674;13.074;2023-03-21T15:58:02;11.10;99.90
20233;DHT22;37438;55.674;13.074;2023-03-21T16:01:21;11.40;99.90
20233;DHT22;37438;55.674;13.074;2023-03-21T16:04:25;11.30;99.90
20233;DHT22;37438;55.674;13.074;2023-03-21T16:07:32;11.10;99.90
20233;DHT22;37438;55.674;13.074;2023-03-21T16:10:38;11.10;99.90
20233;DHT22;37438;55.674;13.074;2023-03-21T16:13:42;11.10;99.90
20233;DHT22;37438;55.674;13.074;2023-03-21T16:16:47;11.40;99.90
20233;DHT22;37438;55.674;13.074;2023-03-21T16:19:52;11.10;99.90
20233;DHT22;37438;55.674;13.074;2023-03-21T16:22:58;11.40;99.90
20233;DHT22;37438;55.674;13.074;2023-03-21T16:26:02;11.20;99.90
20233;DHT22;37438;55.674;13.074;2023-03-21T16:29:09;11.20;99.90
20233;DHT22;37438;55.674;13.074;2023-03-21T16:32:16;11.40;99.90
20233;DHT22;37438;55.674;13.074;2023-03-21T16:35:21;11.30;99.90
20233;DHT22;37438;55.674;13.074;2023-03-21T16:38:27;11.20;99.90
20233;DHT22;37438;55.674;13.074;2023-03-21T16:41:32;11.40;99.90
20233;DHT22;37438;55.674;13.074;2023-03-21T16:44:37;11.20;99.90
20233;DHT22;37438;55.674;13.074;2023-03-21T16:47:42;11.50;99.90
20233;DHT22;37438;55.674;13.074;2023-03-21T16:50:48;11.20;99.90
20233;DHT22;37438;55.674;13.074;2023-03-21T16:53:52;11.40;99.90
20233;DHT22;37438;55.674;13.074;2023-03-21T16:56:57;11.30;99.90
20233;DHT22;37438;55.674;13.074;2023-03-21T17:00:04;11.50;99.90
20233;DHT22;37438;55.674;13.074;2023-03-21T17:03:15;11.60;99.90
20233;DHT22;37438;55.674;13.074;2023-03-21T17:06:25;11.20;99.90
20233;DHT22;37438;55.674;13.074;2023-03-21T17:09:29;11.60;99.90
20233;DHT22;37438;55.674;13.074;2023-03-21T17:12:34;11.40;99.90
20233;DHT22;37438;55.674;13.074;2023-03-21T17:15:38;11.40;99.90
20233;DHT22;37438;55.674;13.074;2023-03-21T17:18:44;11.50;99.90
20233;DHT22;37438;55.674;13.074;2023-03-21T17:21:48;11.90;99.90
20233;DHT22;37438;55.674;13.074;2023-03-21T17:24:53;11.80;99.90
20233;DHT22;37438;55.674;13.074;2023-03-21T17:27:58;12.10;99.90
20233;DHT22;37438;55.674;13.074;2023-03-21T17:31:02;11.70;99.90
20233;DHT22;37438;55.674;13.074;2023-03-21T17:34:07;11.90;99.90
20233;DHT22;37438;55.674;13.074;2023-03-21T17:37:13;12.00;99.90
20233;DHT22;37438;55.674;13.074;2023-03-21T17:40:29;11.90;99.90
20233;DHT22;37438;55.674;13.074;2023-03-21T17:43:34;12.10;99.90
20233;DHT22;37438;55.674;13.074;2023-03-21T17:46:38;12.20;99.90
20233;DHT22;37438;55.674;13.074;2023-03-21T17:49:43;11.90;99.90
20233;DHT22;37438;55.674;13.074;2023-03-21T17:52:49;12.00;99.90
20233;DHT22;37438;55.674;13.074;2023-03-21T17:55:54;12.00;99.90
20233;DHT22;37438;55.674;13.074;2023-03-21T17:59:12;12.10;99.90
20233;DHT22;37438;55.674;13.074;2023-03-21T18:02:17;12.40;99.90
20233;DHT22;37438;55.674;13.074;2023-03-21T18:05:22;12.20;99.90
20233;DHT22;37438;55.674;13.074;2023-03-21T18:08:28;12.40;99.90
20233;DHT22;37438;55.674;13.074;2023-03-21T18:11:32;12.60;99.90
20233;DHT22;37438;55.674;13.074;2023-03-21T18:14:37;12.30;99.90
20233;DHT22;37438;55.674;13.074;2023-03-21T18:17:43;12.40;99.90
20233;DHT22;37438;55.674;13.074;2023-03-21T18:20:48;12.60;99.90
20233;DHT22;37438;55.674;13.074;2023-03-21T18:23:56;12.70;99.90
20233;DHT22;37438;55.674;13.074;2023-03-21T18:27:01;12.80;99.90
20233;DHT22;37438;55.674;13.074;2023-03-21T18:30:06;13.00;99.90
20233;DHT22;37438;55.674;13.074;2023-03-21T18:33:35;12.90;99.90
20233;DHT22;37438;55.674;13.074;2023-03-21T18:36:40;12.90;99.90
20233;DHT22;37438;55.674;13.074;2023-03-21T18:39:46;13.00;99.90
20233;DHT22;37438;55.674;13.074;2023-03-21T18:42:52;12.90;99.90
20233;DHT22;37438;55.674;13.074;2023-03-21T18:46:16;13.00;99.90
20233;DHT22;37438;55.674;13.074;2023-03-21T18:49:21;12.80;99.90
20233;DHT22;37438;55.674;13.074;2023-03-21T18:52:46;12.90;99.90
20233;DHT22;37438;55.674;13.074;2023-03-21T18:55:51;12.80;99.90
20233;DHT22;37438;55.674;13.074;2023-03-21T18:58:55;12.90;99.90
20233;DHT22;37438;55.674;13.074;2023-03-21T19:02:00;12.80;99.90
20233;DHT22;37438;55.674;13.074;2023-03-21T19:05:05;12.80;99.90
20233;DHT22;37438;55.674;13.074;2023-03-21T19:08:10;13.00;99.90
20233;DHT22;37438;55.674;13.074;2023-03-21T19:11:15;13.10;99.90
20233;DHT22;37438;55.674;13.074;2023-03-21T19:14:24;12.80;99.90
20233;DHT22;37438;55.674;13.074;2023-03-21T19:17:28;12.80;99.90
20233;DHT22;37438;55.674;13.074;2023-03-21T19:20:53;12.90;99.90
20233;DHT22;37438;55.674;13.074;2023-03-21T19:23:58;13.00;99.90
20233;DHT22;37438;55.674;13.074;2023-03-21T19:27:22;13.10;99.90
20233;DHT22;37438;55.674;13.074;2023-03-21T19:30:27;13.10;99.90
20233;DHT22;37438;55.674;13.074;2023-03-21T19:33:32;12.90;99.90
20233;DHT22;37438;55.674;13.074;2023-03-21T19:36:36;13.10;99.90
20233;DHT22;37438;55.674;13.074;2023-03-21T19:39:40;13.00;99.90
20233;DHT22;37438;55.674;13.074;2023-03-21T19:42:45;13.30;99.90
20233;DHT22;37438;55.674;13.074;2023-03-21T19:45:49;13.20;99.90
20233;DHT22;37438;55.674;13.074;2023-03-21T19:48:56;13.30;99.90
20233;DHT22;37438;55.674;13.074;2023-03-21T19:52:00;13.10;99.90
20233;DHT22;37438;55.674;13.074;2023-03-21T19:55:05;13.20;99.90
20233;DHT22;37438;55.674;13.074;2023-03-21T19:58:09;13.30;99.90
20233;DHT22;37438;55.674;13.074;2023-03-21T20:01:14;13.30;99.90
20233;DHT22;37438;55.674;13.074;2023-03-21T20:04:19;13.10;99.90
20233;DHT22;37438;55.674;13.074;2023-03-21T20:07:24;13.40;99.90
20233;DHT22;37438;55.674;13.074;2023-03-21T20:10:29;13.20;99.90
20233;DHT22;37438;55.674;13.074;2023-03-21T20:13:33;13.10;99.90
20233;DHT22;37438;55.674;13.074;2023-03-21T20:16:38;13.20;99.90
20233;DHT22;37438;55.674;13.074;2023-03-21T20:19:46;13.40;99.90
20233;DHT22;37438;55.674;13.074;2023-03-21T20:22:51;13.20;99.90
20233;DHT22;37438;55.674;13.074;2023-03-21T20:26:12;13.20;99.90
20233;DHT22;37438;55.674;13.074;2023-03-21T20:29:17;13.30;99.90
20233;DHT22;37438;55.674;13.074;2023-03-21T20:32:43;13.50;99.90
20233;DHT22;37438;55.674;13.074;2023-03-21T20:35:57;13.40;99.90
20233;DHT22;37438;55.674;13.074;2023-03-21T20:39:25;13.40;99.90
20233;DHT22;37438;55.674;13.074;2023-03-21T20:42:36;13.20;99.90
20233;DHT22;37438;55.674;13.074;2023-03-21T20:45:40;13.20;99.90
20233;DHT22;37438;55.674;13.074;2023-03-21T20:48:45;13.30;99.90
20233;DHT22;37438;55.674;13.074;2023-03-21T20:51:52;13.50;99.90
20233;DHT22;37438;55.674;13.074;2023-03-21T20:55:18;13.60;99.90
20233;DHT22;37438;55.674;13.074;2023-03-21T20:58:23;13.30;99.90
20233;DHT22;37438;55.674;13.074;2023-03-21T21:01:48;13.30;99.90
20233;DHT22;37438;55.674;13.074;2023-03-21T21:04:52;13.60;99.90
20233;DHT22;37438;55.674;13.074;2023-03-21T21:08:17;13.50;99.90
20233;DHT22;37438;55.674;13.074;2023-03-21T21:11:22;13.50;99.90
20233;DHT22;37438;55.674;13.074;2023-03-21T21:14:47;13.60;99.90
20233;DHT22;37438;55.674;13.074;2023-03-21T21:17:52;13.60;99.90
20233;DHT22;37438;55.674;13.074;2023-03-21T21:21:10;13.30;99.90
20233;DHT22;37438;55.674;13.074;2023-03-21T21:24:15;13.60;99.90
20233;DHT22;37438;55.674;13.074;2023-03-21T21:27:19;13.60;99.90